createdAt,value
2022-08-18T00:01:19.816Z,6.50
2022-08-18T00:03:55.598Z,11.70
2022-08-18T00:06:28.467Z,15.25
2022-08-18T00:08:55.301Z,9.05
2022-08-18T00:11:21.899Z,8.45
2022-08-18T00:13:48.293Z,11.15
2022-08-18T00:16:14.667Z,7.28
2022-08-18T00:18:41.031Z,10.40
2022-08-18T00:21:07.640Z,11.07
2022-08-18T00:23:33.993Z,10.32
2022-08-18T00:26:00.471Z,10.15
2022-08-18T00:28:26.996Z,8.05
2022-08-18T00:30:53.959Z,7.57
2022-08-18T00:33:21.232Z,9.27
2022-08-18T00:35:47.778Z,9.63
2022-08-18T00:38:24.196Z,9.25
2022-08-18T00:40:53.223Z,9.55
2022-08-18T00:43:21.526Z,8.23
2022-08-18T00:45:47.930Z,6.55
2022-08-18T00:48:15.082Z,6.60
2022-08-18T00:50:42.307Z,10.45
2022-08-18T00:53:18.534Z,7.38
2022-08-18T00:55:53.981Z,9.02
2022-08-18T00:58:24.719Z,8.02
2022-08-18T01:00:51.370Z,11.80
2022-08-18T01:03:24.468Z,9.30
2022-08-18T01:06:03.441Z,7.55
2022-08-18T01:08:30.101Z,7.95
2022-08-18T01:10:57.513Z,11.40
2022-08-18T01:13:31.657Z,15.57
2022-08-18T01:15:58.250Z,6.47
2022-08-18T01:18:43.675Z,10.80
2022-08-18T01:21:31.774Z,7.57
2022-08-18T01:23:58.721Z,11.82
2022-08-18T01:26:26.755Z,8.35
2022-08-18T01:28:54.027Z,7.68
2022-08-18T01:31:30.976Z,9.25
2022-08-18T01:33:57.499Z,7.65
2022-08-18T01:36:23.938Z,11.55
2022-08-18T01:38:51.555Z,9.60
2022-08-18T01:41:28.674Z,14.23
2022-08-18T01:43:58.614Z,8.00
2022-08-18T01:46:25.571Z,9.00
2022-08-18T01:48:52.154Z,7.45
2022-08-18T01:51:19.795Z,9.98
2022-08-18T01:53:46.769Z,10.07
2022-08-18T01:56:14.513Z,9.25
2022-08-18T01:58:40.948Z,10.32
2022-08-18T02:01:07.356Z,7.28
2022-08-18T02:03:37.836Z,10.40
2022-08-18T02:06:05.717Z,10.07
2022-08-18T02:08:32.266Z,7.28
2022-08-18T02:10:59.990Z,18.17
2022-08-18T02:13:26.509Z,9.30
2022-08-18T02:15:53.004Z,8.85
2022-08-18T02:18:25.680Z,9.40
2022-08-18T02:21:14.832Z,6.63
2022-08-18T02:23:53.169Z,8.35
2022-08-18T02:26:20.430Z,8.67
2022-08-18T02:28:46.943Z,11.38
2022-08-18T02:31:19.114Z,12.35
2022-08-18T02:33:46.977Z,9.85
2022-08-18T02:36:19.239Z,12.73
2022-08-18T02:38:45.685Z,8.88
2022-08-18T02:43:49.623Z,7.85
2022-08-18T02:46:16.051Z,9.35
2022-08-18T02:48:42.644Z,9.35
2022-08-18T02:51:12.240Z,12.13
2022-08-18T02:53:42.553Z,13.45
2022-08-18T02:56:41.639Z,9.60
2022-08-18T02:59:10.817Z,10.07
2022-08-18T03:01:38.471Z,6.90
2022-08-18T03:04:06.570Z,9.25
2022-08-18T03:06:35.390Z,8.82
2022-08-18T03:09:01.806Z,8.30
2022-08-18T03:11:29.484Z,9.50
2022-08-18T03:13:56.503Z,13.32
2022-08-18T03:16:24.542Z,8.95
2022-08-18T03:18:52.101Z,10.43
2022-08-18T03:21:21.747Z,8.20
2022-08-18T03:24:00.736Z,10.05
2022-08-18T03:26:28.696Z,7.00
2022-08-18T03:28:55.329Z,10.60
2022-08-18T03:31:23.143Z,12.77
2022-08-18T03:33:54.125Z,9.98
2022-08-18T03:36:22.236Z,9.60
2022-08-18T03:38:50.913Z,9.18
2022-08-18T03:41:56.992Z,10.73
2022-08-18T03:44:10.005Z,9.48
2022-08-18T03:46:36.377Z,9.25
2022-08-18T03:49:03.308Z,11.30
2022-08-18T03:51:32.090Z,13.27
2022-08-18T03:54:00.368Z,10.35
2022-08-18T03:56:28.220Z,10.13
2022-08-18T03:58:56.194Z,11.65
2022-08-18T04:01:26.512Z,10.02
2022-08-18T04:03:56.669Z,14.35
2022-08-18T04:06:29.856Z,9.43
2022-08-18T04:08:58.555Z,11.55
2022-08-18T04:11:25.217Z,11.55
2022-08-18T04:13:51.666Z,10.88
2022-08-18T04:16:20.564Z,9.43
2022-08-18T04:18:46.887Z,12.98
2022-08-18T04:21:13.738Z,9.68
2022-08-18T04:23:44.230Z,8.90
2022-08-18T04:26:19.197Z,11.48
2022-08-18T04:28:47.335Z,10.57
2022-08-18T04:31:14.904Z,11.80
2022-08-18T04:33:42.114Z,17.05
2022-08-18T04:36:12.782Z,13.80
2022-08-18T04:38:45.290Z,12.00
2022-08-18T04:41:13.043Z,10.70
2022-08-18T04:43:40.058Z,11.52
2022-08-18T04:46:07.036Z,13.38
2022-08-18T04:48:34.874Z,9.80
2022-08-18T04:51:12.532Z,11.13
2022-08-18T04:54:00.868Z,11.50
2022-08-18T04:56:27.199Z,11.27
2022-08-18T04:58:54.350Z,9.18
2022-08-18T05:01:21.970Z,11.27
2022-08-18T05:03:50.572Z,11.93
2022-08-18T05:06:17.660Z,10.55
2022-08-18T05:08:49.559Z,8.80
2022-08-18T05:11:16.032Z,10.38
2022-08-18T05:13:44.548Z,14.38
2022-08-18T05:16:16.680Z,10.60
2022-08-18T05:18:45.956Z,16.35
2022-08-18T05:21:13.942Z,8.27
2022-08-18T05:23:42.328Z,8.65
2022-08-18T05:26:09.199Z,15.75
2022-08-18T05:28:37.666Z,8.30
2022-08-18T05:31:13.528Z,8.85
2022-08-18T05:33:40.596Z,9.50
2022-08-18T05:36:19.843Z,9.50
2022-08-18T05:39:12.385Z,8.00
2022-08-18T05:41:41.562Z,12.50
2022-08-18T05:44:09.460Z,8.50
2022-08-18T05:46:55.709Z,10.20
2022-08-18T05:49:24.446Z,10.85
2022-08-18T05:51:53.451Z,11.15
2022-08-18T05:54:39.347Z,12.40
2022-08-18T05:57:09.812Z,13.48
2022-08-18T05:59:38.642Z,7.22
2022-08-18T06:02:05.466Z,21.23
2022-08-18T06:04:35.015Z,10.13
2022-08-18T06:07:05.568Z,18.50
2022-08-18T06:09:34.979Z,12.85
2022-08-18T06:12:08.876Z,15.82
2022-08-18T06:14:36.672Z,20.30
2022-08-18T06:17:09.378Z,15.55
2022-08-18T06:19:44.847Z,19.67
2022-08-18T06:22:31.492Z,24.88
2022-08-18T06:24:57.878Z,18.52
2022-08-18T06:27:35.941Z,16.85
2022-08-18T06:30:11.251Z,10.32
2022-08-18T06:32:56.849Z,15.00
2022-08-18T06:35:29.352Z,12.65
2022-08-18T06:38:23.842Z,14.05
2022-08-18T06:40:51.496Z,15.35
2022-08-18T06:43:18.114Z,12.40
2022-08-18T06:45:48.473Z,12.40
2022-08-18T06:48:24.287Z,11.75
2022-08-18T06:50:57.137Z,18.67
2022-08-18T06:53:43.436Z,9.20
2022-08-18T06:56:26.431Z,9.43
2022-08-18T06:58:55.267Z,9.85
2022-08-18T07:01:23.796Z,14.82
2022-08-18T07:03:54.792Z,9.88
2022-08-18T07:06:21.415Z,17.58
2022-08-18T07:08:52.880Z,12.52
2022-08-18T07:11:30.824Z,17.17
2022-08-18T07:14:15.397Z,9.50
2022-08-18T07:16:59.780Z,9.27
2022-08-18T07:19:28.769Z,8.07
2022-08-18T07:22:03.614Z,10.30
2022-08-18T07:24:34.848Z,10.37
2022-08-18T07:27:09.901Z,10.63
2022-08-18T07:29:55.044Z,9.82
2022-08-18T07:32:21.922Z,10.50
2022-08-18T07:34:55.036Z,14.90
2022-08-18T07:37:28.643Z,22.75
2022-08-18T07:39:59.759Z,9.73
2022-08-18T07:42:56.855Z,14.35
2022-08-18T07:45:31.264Z,16.15
2022-08-18T07:48:34.861Z,13.45
2022-08-18T07:51:13.354Z,16.15
2022-08-18T07:53:55.482Z,11.95
2022-08-18T07:56:28.834Z,17.60
2022-08-18T07:59:07.464Z,11.48
2022-08-18T08:01:33.973Z,18.88
2022-08-18T08:04:03.383Z,20.20
2022-08-18T08:07:06.481Z,21.08
2022-08-18T08:09:55.137Z,20.05
2022-08-18T08:12:40.004Z,19.33
2022-08-18T08:15:27.680Z,24.35
2022-08-18T08:18:00.041Z,19.88
2022-08-18T08:20:33.141Z,20.23
2022-08-18T08:22:59.591Z,14.68
2022-08-18T08:25:47.567Z,17.30
2022-08-18T08:28:14.283Z,13.75
2022-08-18T08:31:19.143Z,11.85
2022-08-18T08:33:52.126Z,15.80
2022-08-18T08:36:31.580Z,16.45
2022-08-18T08:39:00.872Z,12.25
2022-08-18T08:41:33.393Z,12.32
2022-08-18T08:44:08.260Z,14.55
2022-08-18T08:46:41.064Z,11.52
2022-08-18T08:49:09.641Z,12.85
2022-08-18T08:51:44.477Z,18.95
2022-08-18T08:54:26.022Z,12.37
2022-08-18T08:56:54.186Z,16.25
2022-08-18T08:59:22.372Z,17.63
2022-08-18T09:02:27.118Z,13.98
2022-08-18T09:05:09.419Z,17.23
2022-08-18T09:07:42.234Z,14.40
2022-08-18T09:10:11.613Z,14.18
2022-08-18T09:12:58.677Z,16.45
2022-08-18T09:15:44.026Z,16.52
2022-08-18T09:18:13.538Z,16.13
2022-08-18T09:20:58.753Z,18.65
2022-08-18T09:23:33.747Z,11.40
2022-08-18T09:26:20.035Z,13.10
2022-08-18T09:29:00.775Z,10.15
2022-08-18T09:31:32.346Z,18.73
2022-08-18T09:34:10.991Z,26.75
2022-08-18T09:36:37.522Z,9.60
2022-08-18T09:39:27.100Z,15.10
2022-08-18T09:41:53.567Z,19.42
2022-08-18T09:44:39.156Z,19.10
2022-08-18T09:47:10.462Z,15.48
2022-08-18T09:49:47.806Z,17.88
2022-08-18T09:55:16.174Z,15.90
2022-08-18T09:57:44.695Z,23.60
2022-08-18T10:00:12.940Z,16.50
2022-08-18T10:02:40.311Z,19.98
2022-08-18T10:05:15.986Z,17.30
2022-08-18T10:07:45.360Z,15.48
2022-08-18T10:10:59.235Z,17.45
2022-08-18T10:13:03.820Z,15.18
2022-08-18T10:15:33.925Z,16.02
2022-08-18T10:18:18.757Z,24.20
2022-08-18T10:20:45.103Z,17.83
2022-08-18T10:23:11.585Z,12.55
2022-08-18T10:25:39.699Z,17.00
2022-08-18T10:28:10.109Z,13.80
2022-08-18T10:30:56.581Z,18.17
2022-08-18T10:33:43.921Z,17.77
2022-08-18T10:36:11.029Z,21.00
2022-08-18T10:38:40.475Z,28.75
2022-08-18T10:41:26.133Z,20.98
2022-08-18T10:43:56.014Z,18.77
2022-08-18T10:46:29.427Z,19.33
2022-08-18T10:49:04.603Z,24.23
2022-08-18T10:51:30.986Z,19.70
2022-08-18T10:54:24.243Z,22.30
2022-08-18T10:56:54.569Z,19.95
2022-08-18T10:59:31.853Z,22.35
2022-08-18T11:02:14.576Z,26.63
2022-08-18T11:04:58.557Z,28.08
2022-08-18T11:07:30.839Z,21.70
2022-08-18T11:13:10.548Z,29.15
2022-08-18T11:15:38.560Z,22.15
2022-08-18T11:18:28.862Z,28.80
2022-08-18T11:21:15.220Z,35.65
2022-08-18T11:23:42.779Z,33.42
2022-08-18T11:26:13.941Z,32.45
2022-08-18T11:28:45.066Z,28.55
2022-08-18T11:31:13.576Z,33.92
2022-08-18T11:33:40.953Z,27.80
2022-08-18T11:36:07.450Z,24.08
2022-08-18T11:38:36.505Z,32.58
2022-08-18T11:41:17.294Z,35.15
2022-08-18T11:43:46.809Z,25.42
2022-08-18T11:46:31.983Z,33.15
2022-08-18T11:52:02.392Z,27.98
2022-08-18T11:54:35.784Z,18.85
2022-08-18T11:57:21.195Z,28.98
2022-08-18T11:59:54.869Z,25.65
2022-08-18T12:02:26.680Z,20.25
2022-08-18T12:04:56.931Z,28.75
2022-08-18T12:07:28.438Z,23.42
2022-08-18T12:10:16.950Z,26.77
2022-08-18T12:12:47.369Z,28.95
2022-08-18T12:15:23.933Z,34.63
2022-08-18T12:20:37.973Z,29.98
2022-08-18T12:23:05.473Z,28.25
2022-08-18T12:25:32.304Z,29.05
2022-08-18T12:27:58.681Z,31.33
2022-08-18T12:30:25.037Z,24.45
2022-08-18T12:35:41.911Z,26.05
2022-08-18T12:38:12.972Z,26.85
2022-08-18T12:40:40.899Z,25.33
2022-08-18T12:43:07.466Z,27.52
2022-08-18T12:45:34.154Z,24.77
2022-08-18T12:48:04.412Z,25.40
2022-08-18T12:50:54.288Z,21.55
2022-08-18T12:53:29.441Z,25.75
2022-08-18T12:56:05.145Z,32.88
2022-08-18T12:58:31.602Z,19.20
2022-08-18T13:01:03.725Z,22.13
2022-08-18T13:03:30.336Z,22.92
2022-08-18T13:06:02.349Z,26.52
2022-08-18T13:08:30.559Z,20.63
2022-08-18T13:11:00.422Z,30.77
2022-08-18T13:13:42.701Z,28.02
2022-08-18T13:16:09.389Z,19.67
2022-08-18T13:18:42.998Z,18.92
2022-08-18T13:21:12.523Z,21.55
2022-08-18T13:23:40.923Z,25.30
2022-08-18T13:26:09.622Z,18.35
2022-08-18T13:28:57.185Z,24.35
2022-08-18T13:31:23.250Z,20.13
2022-08-18T13:33:56.541Z,22.55
2022-08-18T13:36:28.986Z,22.88
2022-08-18T13:38:55.544Z,19.33
2022-08-18T13:41:23.399Z,25.63
2022-08-18T13:43:51.060Z,25.30
2022-08-18T13:46:19.765Z,19.45
2022-08-18T13:48:59.898Z,20.85
2022-08-18T13:51:28.276Z,22.15
2022-08-18T13:54:17.927Z,24.27
2022-08-18T13:56:41.885Z,31.08
2022-08-18T13:59:17.873Z,22.42
2022-08-18T14:01:52.142Z,24.15
2022-08-18T14:04:20.499Z,23.42
2022-08-18T14:06:56.343Z,21.30
2022-08-18T14:09:36.024Z,28.80
2022-08-18T14:12:15.797Z,30.90
2022-08-18T14:14:49.897Z,27.90
2022-08-18T14:17:18.705Z,28.17
2022-08-18T14:20:04.664Z,31.95
2022-08-18T14:22:49.545Z,34.57
2022-08-18T14:25:34.851Z,22.10
2022-08-18T14:28:03.885Z,26.15
2022-08-18T14:30:31.443Z,23.50
2022-08-18T14:32:59.048Z,23.33
2022-08-18T14:35:33.119Z,29.33
2022-08-18T14:38:12.081Z,24.13
2022-08-18T14:40:41.727Z,25.33
2022-08-18T14:43:10.228Z,21.08
2022-08-18T14:45:39.221Z,30.05
2022-08-18T14:48:07.296Z,18.52
2022-08-18T14:50:37.542Z,23.13
2022-08-18T14:53:07.838Z,30.05
2022-08-18T14:55:34.316Z,19.38
2022-08-18T14:58:00.827Z,19.85
2022-08-18T15:00:28.055Z,18.08
2022-08-18T15:02:54.553Z,24.23
2022-08-18T15:05:24.512Z,24.23
2022-08-18T15:07:51.246Z,23.33
2022-08-18T15:10:19.682Z,24.95
2022-08-18T15:12:49.577Z,21.25
2022-08-18T15:15:17.994Z,21.35
2022-08-18T15:17:44.773Z,24.45
2022-08-18T15:20:19.122Z,28.60
2022-08-18T15:23:04.892Z,21.65
2022-08-18T15:25:44.657Z,21.92
2022-08-18T15:28:16.409Z,24.75
2022-08-18T15:30:46.847Z,27.98
2022-08-18T15:33:18.385Z,24.27
2022-08-18T15:35:50.566Z,25.17
2022-08-18T15:38:18.600Z,23.23
2022-08-18T15:40:49.672Z,20.00
2022-08-18T15:43:25.365Z,25.30
2022-08-18T15:45:57.875Z,23.90
2022-08-18T15:48:25.820Z,23.38
2022-08-18T15:50:52.356Z,20.00
2022-08-18T15:53:22.165Z,20.63
2022-08-18T15:55:50.269Z,29.02
2022-08-18T15:58:22.409Z,22.38
2022-08-18T16:00:53.674Z,21.52
2022-08-18T16:03:21.214Z,18.50
2022-08-18T16:05:48.079Z,19.10
2022-08-18T16:08:18.118Z,22.75
2022-08-18T16:10:44.963Z,15.57
2022-08-18T16:13:11.395Z,19.95
2022-08-18T16:15:39.565Z,26.55
2022-08-18T16:18:07.493Z,23.35
2022-08-18T16:20:34.246Z,18.15
2022-08-18T16:23:01.062Z,29.80
2022-08-18T16:25:27.574Z,22.80
2022-08-18T16:27:54.915Z,24.63
2022-08-18T16:30:24.595Z,17.60
2022-08-18T16:32:51.008Z,20.67
2022-08-18T16:35:18.653Z,22.35
2022-08-18T16:37:46.699Z,18.30
2022-08-18T16:40:14.659Z,20.13
2022-08-18T16:42:41.475Z,20.55
2022-08-18T16:45:08.903Z,22.27
2022-08-18T16:47:40.230Z,17.23
2022-08-18T16:50:07.794Z,19.90
2022-08-18T16:52:35.306Z,16.40
2022-08-18T16:55:02.332Z,18.23
2022-08-18T16:57:54.056Z,22.08
2022-08-18T17:00:40.482Z,16.13
2022-08-18T17:03:25.783Z,17.75
2022-08-18T17:06:01.143Z,18.60
2022-08-18T17:08:27.973Z,17.38
2022-08-18T17:10:55.041Z,19.38
2022-08-18T17:13:21.438Z,19.00
2022-08-18T17:15:50.679Z,20.00
2022-08-18T17:18:17.093Z,25.58
2022-08-18T17:20:46.149Z,17.23
2022-08-18T17:23:13.023Z,15.73
2022-08-18T17:25:39.988Z,18.27
2022-08-18T17:28:10.008Z,26.38
2022-08-18T17:30:41.760Z,16.25
2022-08-18T17:33:14.684Z,25.58
2022-08-18T17:35:42.721Z,20.60
2022-08-18T17:38:09.114Z,25.80
2022-08-18T17:40:35.435Z,15.23
2022-08-18T17:43:01.846Z,17.23
2022-08-18T17:45:29.672Z,25.05
2022-08-18T17:48:14.324Z,26.08
2022-08-18T17:51:03.232Z,20.10
2022-08-18T17:53:31.373Z,25.25
2022-08-18T17:56:09.984Z,24.88
2022-08-18T17:58:40.591Z,20.45
2022-08-18T18:01:07.925Z,20.92
2022-08-18T18:03:34.651Z,29.30
2022-08-18T18:06:10.268Z,31.02
2022-08-18T18:13:32.802Z,29.52
2022-08-18T18:16:01.148Z,28.83
2022-08-18T18:18:41.897Z,23.73
2022-08-18T18:21:14.133Z,28.70
2022-08-18T18:23:46.283Z,29.15
2022-08-18T18:26:26.142Z,30.83
2022-08-18T18:29:12.882Z,31.25
2022-08-18T18:31:40.059Z,37.42
2022-08-18T18:34:23.271Z,28.77
2022-08-18T18:36:54.455Z,28.70
2022-08-18T18:39:33.298Z,30.92
2022-08-18T18:42:18.084Z,27.33
2022-08-18T18:44:55.681Z,24.65
2022-08-18T18:47:42.477Z,33.97
2022-08-18T18:50:21.116Z,43.22
2022-08-18T18:52:55.988Z,48.38
2022-08-18T18:55:24.184Z,47.73
2022-08-18T18:58:09.314Z,45.85
2022-08-18T19:00:41.787Z,44.83
2022-08-18T19:03:10.602Z,45.92
2022-08-18T19:05:45.495Z,45.63
2022-08-18T19:08:33.307Z,54.00
2022-08-18T19:11:03.574Z,49.38
2022-08-18T19:13:35.984Z,48.85
2022-08-18T19:16:11.814Z,53.00
2022-08-18T19:18:59.753Z,54.97
2022-08-18T19:22:02.456Z,54.20
2022-08-18T19:24:26.702Z,51.83
2022-08-18T19:26:55.018Z,62.47
2022-08-18T19:29:23.820Z,45.08
2022-08-18T19:31:57.889Z,57.15
2022-08-18T19:34:31.222Z,50.15
2022-08-18T19:37:18.343Z,48.33
2022-08-18T19:40:12.970Z,41.03
2022-08-18T19:42:42.130Z,44.60
2022-08-18T19:45:19.326Z,43.10
2022-08-18T19:47:50.725Z,46.47
2022-08-18T19:50:35.749Z,47.47
2022-08-18T19:53:14.513Z,45.50
2022-08-18T19:55:50.003Z,49.55
2022-08-18T19:58:25.653Z,53.25
2022-08-18T20:05:44.880Z,53.53
2022-08-18T20:08:30.068Z,56.60
2022-08-18T20:10:59.439Z,61.97
2022-08-18T20:13:25.747Z,57.10
2022-08-18T20:16:15.415Z,60.67
2022-08-18T20:18:44.747Z,60.25
2022-08-18T20:21:14.189Z,58.47
2022-08-18T20:23:55.841Z,58.85
2022-08-18T20:26:34.630Z,70.57
2022-08-18T20:29:01.428Z,66.85
2022-08-18T20:31:44.474Z,69.90
2022-08-18T20:34:14.385Z,69.53
2022-08-18T20:36:42.574Z,66.90
2022-08-18T20:39:28.708Z,66.50
2022-08-18T20:47:02.547Z,63.08
2022-08-18T20:49:38.185Z,65.50
2022-08-18T20:54:32.949Z,56.95
2022-08-18T20:57:01.908Z,65.40
2022-08-18T20:59:33.059Z,62.85
2022-08-18T21:02:08.192Z,66.93
2022-08-18T21:04:44.371Z,67.80
2022-08-18T21:07:17.751Z,65.88
2022-08-18T21:09:49.819Z,68.78
2022-08-18T21:12:21.957Z,68.03
2022-08-18T21:14:51.468Z,66.40
2022-08-18T21:17:20.525Z,61.40
2022-08-18T21:19:47.207Z,68.18
2022-08-18T21:22:16.218Z,72.13
2022-08-18T21:24:44.337Z,63.10
2022-08-18T21:27:19.465Z,65.38
2022-08-18T21:29:49.425Z,74.63
2022-08-18T21:32:21.812Z,66.85
2022-08-18T21:34:49.580Z,66.85
2022-08-18T21:37:17.977Z,67.15
2022-08-18T21:39:52.829Z,61.45
2022-08-18T21:42:45.609Z,61.47
2022-08-18T21:45:20.479Z,62.97
2022-08-18T21:47:54.488Z,56.63
2022-08-18T21:50:23.293Z,56.63
2022-08-18T21:53:01.165Z,59.80
2022-08-18T21:55:33.173Z,58.78
2022-08-18T21:58:05.715Z,58.28
2022-08-18T22:00:36.606Z,54.00
2022-08-18T22:03:12.027Z,54.88
2022-08-18T22:05:58.683Z,55.88
2022-08-18T22:08:29.513Z,52.78
2022-08-18T22:11:59.572Z,58.08
2022-08-18T22:14:27.005Z,51.00
2022-08-18T22:17:13.430Z,52.08
2022-08-18T22:19:39.786Z,52.45
2022-08-18T22:22:24.952Z,52.10
2022-08-18T22:24:53.970Z,50.15
2022-08-18T22:27:22.405Z,52.22
2022-08-18T22:29:53.334Z,55.15
2022-08-18T22:32:21.545Z,49.97
2022-08-18T22:34:50.364Z,52.95
2022-08-18T22:37:19.277Z,57.78
2022-08-18T22:39:46.282Z,63.33
2022-08-18T22:42:14.382Z,70.28
2022-08-18T22:44:44.216Z,67.93
2022-08-18T22:47:10.716Z,67.47
2022-08-18T22:49:37.775Z,68.95
2022-08-18T22:52:08.735Z,72.45
2022-08-18T22:54:35.167Z,74.38
2022-08-18T22:57:02.509Z,77.57
2022-08-18T22:59:28.957Z,75.47
2022-08-18T23:01:59.790Z,76.38
2022-08-18T23:04:26.923Z,84.70
2022-08-18T23:06:54.173Z,80.20
2022-08-18T23:09:28.359Z,74.38
2022-08-18T23:11:57.703Z,74.93
2022-08-18T23:14:26.469Z,75.20
2022-08-18T23:16:53.010Z,78.40
2022-08-18T23:19:20.205Z,80.85
2022-08-18T23:21:48.375Z,80.80
2022-08-18T23:24:15.510Z,70.15
2022-08-18T23:26:42.426Z,77.32
2022-08-18T23:29:11.438Z,74.07
2022-08-18T23:31:38.775Z,71.35
2022-08-18T23:34:05.221Z,78.38
2022-08-18T23:36:32.858Z,76.20
2022-08-18T23:38:59.685Z,78.88
2022-08-18T23:41:26.618Z,74.80
2022-08-18T23:43:53.419Z,75.45
2022-08-18T23:46:24.514Z,79.03
2022-08-18T23:48:52.190Z,76.55
2022-08-18T23:51:35.258Z,84.30
2022-08-18T23:54:03.726Z,79.50
2022-08-18T23:56:30.917Z,80.80
2022-08-18T23:58:57.561Z,71.97
